Latest Coastal Weather Observations for Devonport Airport

IDT60701

Issued at 8:02 am EST Saturday 25 June 2016 (issued every 10 minutes, with the page automatically refreshed every 10 minutes)

About coastal observations | Map of coastal stations | Coastal observations for TAS | Marine services | Other Formats
Station Details ID: 091126 Name: DEVONPORT AIRPORT Lat: -41.17 Lon: 146.43 Height: 8.0 m
Data from the previous 72 hours. | See also: Recent months at Devonport Airport
Date/Time
EST
Temp

°C
Wind Pressure Rain
since 9am
mm
Weather Cloud Vis
km
Sea
Height
m
Swell
Dir
 
Speed
knots
Gust
knots
hPa Trend Height
m
Period
s
Dir
25/08:00am 1.0 WSW 8 9 1018.3 - 0.0 - - 10 - - - -
25/07:30am 1.8 WSW 7 7 1017.9 - 0.0 - - 10 - - - -
25/07:00am 1.8 WSW 6 7 1017.6 - 0.0 - - 10 - - - -
25/06:30am 2.0 SW 5 5 1017.5 - 0.0 - - 10 - - - -
25/06:00am 3.7 SSW 6 8 1016.9 - 0.0 - - 10 - - - -
25/05:30am 3.4 SW 8 9 1016.7 - 0.0 - - 10 - - - -
25/05:00am 3.1 SW 7 9 1016.2 - 0.0 - - 10 - - - -
25/04:30am 5.2 SW 11 14 1015.6 - 0.0 - - 10 - - - -
25/04:00am 5.2 SW 9 13 1015.5 - 0.0 - - 10 - - - -
25/03:30am 2.7 SW 9 11 1015.2 - 0.0 - - 10 - - - -
25/03:00am 4.0 SW 9 13 1014.7 - 0.0 - - 10 - - - -
25/02:30am 3.4 W 10 11 1014.7 - 0.0 - - 10 - - - -
25/02:00am 4.4 WSW 7 11 1014.4 - 0.0 - - 10 - - - -
25/01:30am 3.6 SSE 1 6 1013.9 - 0.0 - - 10 - - - -
25/01:00am 4.1 SW 6 8 1013.6 - 0.0 - - 10 - - - -
25/12:30am 4.3 WSW 10 13 1013.1 - 0.0 - - 10 - - - -
25/12:00am 2.9 WSW 10 11 1012.9 - 0.0 - - 10 - - - -
 
Date/Time
EST
Temp

°C
Wind Pressure Rain
since 9am
mm
Weather Cloud Vis
km
Sea
Height
m
Swell
Dir
 
Speed
knots
Gust
knots
hPa Trend Height
m
Period
s
Dir
24/11:30pm 2.9 WSW 8 9 1012.6 - 0.0 - - 10 - - - -
24/11:00pm 4.1 SW 5 7 1012.2 - 0.0 - - 10 - - - -
24/10:30pm 4.4 SW 5 7 1011.8 - 0.0 - - 10 - - - -
24/10:00pm 4.0 W 8 10 1011.3 - 0.0 - - 10 - - - -
24/09:30pm 3.9 W 14 16 1010.5 - 0.0 - - 10 - - - -
24/09:00pm 4.2 WSW 7 10 1009.9 - 0.0 - - 10 - - - -
24/08:30pm 4.3 WSW 8 9 1009.2 - 0.0 - - 10 - - - -
24/08:00pm 6.0 SW 9 12 1008.6 - 0.0 - - 10 - - - -
24/07:30pm 5.7 SW 8 11 1008.0 - 0.0 - - 10 - - - -
24/07:00pm 5.8 SW 6 8 1007.5 - 0.0 - - 10 - - - -
24/06:30pm 5.4 WSW 7 10 1006.5 - 0.0 - - 10 - - - -
24/06:00pm 6.5 WSW 9 11 1005.8 - 0.0 - Cloudy 10 - - - -
24/05:30pm 6.9 WSW 9 12 1004.9 - 0.0 - Partly cloudy 10 - - - -
24/05:00pm 6.9 WSW 13 16 1004.4 - 0.0 - Partly cloudy 10 - - - -
24/04:30pm 7.5 WSW 13 16 1003.6 - 0.0 - Partly cloudy 10 - - - -
24/04:00pm 8.4 WSW 14 19 1003.0 - 0.0 - Partly cloudy 10 - - - -
24/03:30pm 9.0 WSW 13 18 1002.1 - 0.0 - - 10 - - - -
24/03:00pm 9.8 WSW 13 17 1001.3 - 0.0 - Partly cloudy 10 - - - -
24/02:30pm 9.3 SW 9 13 1000.8 - 0.0 - Partly cloudy 10 - - - -
24/02:00pm 8.7 W 13 16 1000.7 - 0.0 - - 10 - - - -
24/01:30pm 9.6 WSW 8 11 1000.2 - 0.0 - - 10 - - - -
24/01:00pm 9.2 WSW 8 10 1000.0 - 0.0 - Partly cloudy 10 - - - -
24/12:30pm 8.8 WNW 5 8 1000.0 - 0.0 - - 10 - - - -
24/12:00pm 8.1 WSW 9 11 999.9 - 0.0 - - 10 - - - -
24/11:30am 7.0 WSW 5 7 1000.0 - 0.0 - Partly cloudy 10 - - - -
24/11:00am 5.7 SW 5 6 999.9 - 0.0 - - 10 - - - -
24/10:30am 5.4 SSW 4 5 999.3 - 0.0 - - 10 - - - -
24/10:00am 4.9 CALM 0 4 999.1 - 0.0 - - 10 - - - -
24/09:30am 4.5 S 3 4 998.8 - 0.0 - - 10 - - - -
24/09:00am 4.0 SSW 3 5 998.3 - 26.6 - Cloudy 10 - - - -
24/08:30am 4.2 S 5 6 997.7 - 26.6 - Partly cloudy 10 - - - -
24/08:00am 4.0 S 4 6 997.6 - 26.6 - Partly cloudy 10 - - - -
24/07:30am 4.0 SSW 6 8 997.4 - 26.6 - Partly cloudy 10 - - - -
24/07:00am 3.8 SSE 7 8 996.7 - 26.6 - Partly cloudy 10 - - - -
24/06:30am 3.6 SSE 8 10 996.7 - 26.6 - - 10 - - - -
24/06:00am 3.5 S 7 9 996.4 - 26.6 - Cloudy 10 - - - -
24/05:30am 3.3 S 8 9 996.0 - 26.6 - - 10 - - - -
24/05:00am 2.9 S 7 7 996.0 - 26.6 - - 10 - - - -
24/04:30am 2.2 S 5 5 996.0 - 26.6 - - 10 - - - -
24/04:00am 1.8 SW 3 4 995.9 - 26.6 - - 10 - - - -
24/03:30am 2.3 SSW 4 6 995.9 - 26.6 - - 10 - - - -
24/03:00am 2.6 S 5 6 995.8 - 26.6 - - 10 - - - -
24/02:30am 3.2 S 4 5 995.8 - 26.6 - - 10 - - - -
24/02:00am 5.0 SW 5 7 995.7 - 26.6 - - 10 - - - -
24/01:30am 4.6 WSW 6 7 995.7 - 26.6 - Partly cloudy 10 - - - -
24/01:00am 5.1 WSW 5 5 995.4 - 26.6 - - 10 - - - -
24/12:30am 5.3 SW 5 6 995.3 - 26.6 - Partly cloudy 10 - - - -
24/12:00am 6.0 SW 5 5 995.5 - 26.6 - Cloudy 10 - - - -
 
Date/Time
EST
Temp

°C
Wind Pressure Rain
since 9am
mm
Weather Cloud Vis
km
Sea
Height
m
Swell
Dir
 
Speed
knots
Gust
knots
hPa Trend Height
m
Period
s
Dir
23/11:30pm 5.8 WSW 6 7 995.2 - 26.6 - - 10 - - - -
23/11:00pm 6.0 SSW 5 6 995.2 - 26.6 - Cloudy 10 - - - -
23/10:30pm 6.1 WSW 5 7 995.3 - 26.6 - Partly cloudy 10 - - - -
23/10:00pm 6.3 SW 6 8 995.3 - 26.6 - Partly cloudy 10 - - - -
23/09:30pm 6.3 WSW 8 12 994.9 - 26.6 - Partly cloudy 10 - - - -
23/09:00pm 7.0 W 11 14 995.0 - 26.6 - Cloudy 10 - - - -
23/08:30pm 7.1 W 12 15 994.7 - 26.6 - Partly cloudy 10 - - - -
23/08:00pm 7.3 W 12 16 994.5 - 26.6 - Partly cloudy 10 - - - -
23/07:30pm 7.1 W 11 16 993.2 - 26.6 - Partly cloudy 10 - - - -
23/07:00pm 6.6 W 8 11 992.7 - 26.6 - Cloudy 10 - - - -
23/06:30pm 6.6 W 8 12 992.9 - 26.6 - Cloudy 10 - - - -
23/06:00pm 6.8 W 8 12 992.2 - 26.6 Drizzle Cloudy 10 - - - -
23/05:30pm 6.9 W 12 16 992.4 - 26.6 - Cloudy 10 - - - -
23/05:00pm 7.1 WSW 7 10 991.7 - 25.8 - Partly cloudy 10 - - - -
23/04:30pm 7.3 WSW 8 12 990.6 - 25.4 - Partly cloudy 10 - - - -
23/04:00pm 7.7 WSW 7 10 990.4 - 23.4 - Partly cloudy 10 - - - -
23/03:30pm 8.2 SW 11 15 989.9 - 22.8 - Partly cloudy 10 - - - -
23/03:26pm 8.4 SW 10 15 989.9 - 22.6 - Partly cloudy 10 - - - -
23/03:23pm 8.4 SW 9 14 989.9 - 22.6 - Partly cloudy 10 - - - -
23/03:05pm 9.3 W 6 11 990.0 - 22.0 - Partly cloudy 3 - - - -
23/03:00pm 9.2 WSW 2 8 990.0 - 21.4 Rain Mostly cloudy 3 - - - -
23/02:30pm 9.4 W 5 7 990.1 - 17.6 - Partly cloudy 6 - - - -
23/02:00pm 9.8 W 7 9 990.3 - 14.4 - Partly cloudy 6 - - - -
23/01:47pm 10.0 WNW 8 10 990.5 - 13.6 - Partly cloudy 6 - - - -
23/01:41pm 10.0 WNW 8 10 990.5 - 12.8 - Partly cloudy 7 - - - -
23/01:39pm 9.9 W 9 11 990.5 - 12.8 - Partly cloudy 7 - - - -
23/01:30pm 10.0 WNW 15 21 990.8 - 12.2 - Partly cloudy 5 - - - -
23/01:12pm 10.6 NW 12 16 991.0 - 10.4 - Partly cloudy 6 - - - -
23/01:00pm 10.4 WNW 16 22 991.5 - 9.8 - Partly cloudy 5 - - - -
23/12:39pm 10.9 NW 22 27 992.4 - 7.2 - Partly cloudy 6 - - - -
23/12:37pm 11.0 NNW 22 27 992.2 - 7.0 - Partly cloudy 7 - - - -
23/12:30pm 11.3 NNW 21 26 992.4 - 6.6 - Partly cloudy 9 - - - -
23/12:29pm 11.5 NNW 20 26 992.5 - 6.6 - Partly cloudy 8 - - - -
23/12:16pm 11.2 NW 19 24 993.0 - 6.0 - Partly cloudy 6 - - - -
23/12:12pm 10.9 NW 19 24 993.0 - 6.0 - Partly cloudy 6 - - - -
23/12:00pm 10.8 NW 19 23 993.4 - 5.0 Rain Cloudy 9 - - - -
23/11:49am 10.8 WNW 21 27 993.6 - 4.8 - Partly cloudy 8 - - - -
23/11:31am 11.0 NW 23 33 993.8 - 4.6 - Partly cloudy 6 - - - -
23/11:30am 11.1 NW 22 33 993.8 - 4.4 - Partly cloudy 7 - - - -
23/11:26am 11.2 NW 21 27 993.9 - 4.2 - Partly cloudy 8 - - - -
23/11:22am 11.3 NW 21 29 994.1 - 4.0 - Partly cloudy 9 - - - -
23/11:20am 11.0 NW 22 29 994.2 - 4.0 - Partly cloudy 9 - - - -
23/11:00am 11.3 NW 22 30 994.3 - 3.6 - Partly cloudy 6 - - - -
23/10:57am 11.2 NW 19 30 994.3 - 3.4 - Partly cloudy 5 - - - -
23/10:52am 11.0 NW 16 20 994.7 - 3.2 - Partly cloudy 6 - - - -
23/10:50am 10.8 NW 16 20 994.7 - 3.0 - Partly cloudy 6 - - - -
23/10:30am 10.9 NW 19 23 995.0 - 2.2 - Partly cloudy 10 - - - -
23/10:01am 10.6 NW 17 24 994.9 - 2.2 - Partly cloudy 9 - - - -
23/10:00am 10.7 NW 18 24 995.0 - 2.2 - Partly cloudy 9 - - - -
23/09:41am 11.3 NW 24 31 995.0 - 1.4 - Partly cloudy 6 - - - -
23/09:30am 11.5 NW 24 33 995.2 - 0.8 - Partly cloudy 7 - - - -
23/09:23am 11.6 NW 25 31 995.2 - 0.6 - Partly cloudy 8 - - - -
23/09:08am 11.9 NNW 25 34 995.0 - 0.2 - Partly cloudy 6 - - - -
23/09:00am 11.8 NNW 23 34 994.8 - 13.8 Rain Cloudy 7 - - - -
23/08:53am 11.8 NNW 20 31 994.8 - 13.8 - Partly cloudy 8 - - - -
23/08:33am 11.8 WNW 19 26 995.4 - 13.4 - Partly cloudy 9 - - - -
23/08:30am 11.6 WNW 18 24 995.4 - 13.4 - Partly cloudy 9 - - - -
23/08:15am 11.3 WNW 20 25 995.3 - 13.4 - Partly cloudy 10 - - - -
23/08:04am 10.8 WNW 16 19 995.2 - 13.2 - Partly cloudy 8 - - - -
23/08:00am 10.9 WNW 16 20 995.2 - 12.6 - Partly cloudy 10 - - - -
23/07:51am 10.5 NW 19 29 995.2 - 12.4 - Partly cloudy 5 - - - -
23/07:39am 11.1 NW 21 30 995.3 - 12.0 - Partly cloudy 6 - - - -
23/07:30am 11.9 NW 20 27 995.3 - 11.4 - Partly cloudy 10 - - - -
23/07:00am 11.9 NW 20 25 995.3 - 11.0 - Partly cloudy 10 - - - -
23/06:52am 12.1 NW 19 24 995.4 - 11.0 - Partly cloudy 10 - - - -
23/06:36am 12.0 NW 22 29 995.5 - 11.0 - Partly cloudy 10 - - - -
23/06:32am 12.1 NW 22 29 995.5 - 11.0 - Partly cloudy 10 - - - -
23/06:30am 12.5 WNW 22 27 995.6 - 11.0 - Partly cloudy 10 - - - -
23/06:08am 12.4 NW 22 29 995.4 - 11.0 - Partly cloudy 10 - - - -
23/06:00am 12.2 NW 24 31 995.4 - 11.0 Drizzle Cloudy 10 - - - -
23/05:30am 12.5 NW 25 35 995.3 - 11.0 - Partly cloudy 10 - - - -
23/05:13am 12.6 NW 23 33 995.3 - 11.0 - Partly cloudy 10 - - - -
23/05:00am 12.3 NW 24 33 995.5 - 11.0 - Partly cloudy 10 - - - -
23/04:47am 12.2 NW 26 36 995.8 - 11.0 - Partly cloudy 10 - - - -
23/04:42am 12.1 NW 25 36 995.9 - 11.0 - Partly cloudy 10 - - - -
23/04:39am 12.1 WNW 22 36 995.8 - 11.0 - Partly cloudy 10 - - - -
23/04:37am 11.8 WNW 19 33 996.0 - 11.0 - Partly cloudy 10 - - - -
23/04:30am 10.5 WNW 19 23 996.1 - 11.0 - Partly cloudy 4 - - - -
23/04:18am 10.2 NW 17 29 996.6 - 9.0 - Partly cloudy 4 - - - -
23/04:17am 10.4 NW 17 29 996.5 - 8.6 - Partly cloudy 5 - - - -
23/04:16am 11.2 NW 16 29 996.4 - 8.0 - Partly cloudy 7 - - - -
23/04:10am 11.7 NW 17 23 996.3 - 7.4 - Partly cloudy 10 - - - -
23/04:01am 11.6 NW 20 26 996.5 - 7.2 - Partly cloudy 10 - - - -
23/04:00am 11.6 NW 20 26 996.5 - 7.2 - Partly cloudy 10 - - - -
23/03:48am 11.3 NW 19 27 996.5 - 7.2 - Partly cloudy 6 - - - -
23/03:41am 11.4 NW 21 28 996.7 - 6.4 - Partly cloudy 7 - - - -
23/03:30am 11.5 NW 19 27 996.9 - 5.8 - Partly cloudy 6 - - - -
23/03:27am 11.7 NW 20 27 997.1 - 5.8 - Partly cloudy 5 - - - -
23/03:22am 11.5 NW 21 31 997.5 - 5.6 - Partly cloudy 5 - - - -
23/03:11am 11.4 NW 24 33 997.6 - 4.6 - Partly cloudy 5 - - - -
23/03:04am 10.3 WNW 11 30 997.8 - 4.2 - Partly cloudy 5 - - - -
23/03:00am 8.9 WSW 6 15 997.9 - 3.6 Showers Cloudy 4 - - - -
23/02:48am 7.1 SSE 6 7 997.8 - 1.8 - Partly cloudy 6 - - - -
23/02:30am 6.9 S 6 8 998.2 - 0.8 - Partly cloudy 10 - - - -
23/02:00am 6.1 S 6 8 998.7 - 0.6 - Partly cloudy 10 - - - -
23/01:43am 6.0 S 6 7 999.0 - 0.6 - Partly cloudy 10 - - - -
23/01:30am 5.6 S 4 6 999.1 - 0.6 - Partly cloudy 6 - - - -
23/01:25am 5.6 SSE 4 6 999.0 - 0.4 - Partly cloudy 6 - - - -
23/01:00am 5.1 SSE 4 5 999.5 - 0.0 - Partly cloudy 10 - - - -
23/12:30am 5.0 CALM 0 0 999.9 - 0.0 - - 10 - - - -
23/12:00am 6.6 CALM 0 2 1000.1 - 0.0 - Cloudy 10 - - - -
 
Date/Time
EST
Temp

°C
Wind Pressure Rain
since 9am
mm
Weather Cloud Vis
km
Sea
Height
m
Swell
Dir
 
Speed
knots
Gust
knots
hPa Trend Height
m
Period
s
Dir
22/11:30pm 5.8 CALM 0 0 1000.7 - 0.0 - Partly cloudy 10 - - - -
22/11:00pm 5.0 S 1 3 1000.8 - 0.0 - Partly cloudy 10 - - - -
22/10:30pm 6.7 S 3 4 1000.8 - 0.0 - Partly cloudy 10 - - - -
22/10:00pm 8.0 WSW 3 4 1000.8 - 0.0 - Partly cloudy 10 - - - -
22/09:30pm 8.1 SW 4 6 1001.0 - 0.0 - - 10 - - - -
22/09:00pm 7.6 WSW 7 8 1001.1 - 0.0 - Cloudy 10 - - - -
22/08:30pm 8.4 W 11 17 1000.8 - 0.0 - - 10 - - - -
22/08:00pm 8.8 W 13 18 1000.3 - 0.0 - Partly cloudy 10 - - - -
22/07:30pm 8.6 WNW 11 14 1000.1 - 0.0 - - 10 - - - -
22/07:00pm 8.7 W 13 17 999.7 - 0.0 - - 10 - - - -
22/06:30pm 8.6 W 13 20 999.1 - 0.0 - - 10 - - - -
22/06:00pm 9.3 W 15 23 998.6 - 0.0 - - 10 - - - -
22/05:30pm 8.0 W 10 14 998.3 - 0.0 - - 10 - - - -
22/05:00pm 8.8 W 14 21 997.7 - 0.0 - - 10 - - - -
22/04:30pm 9.4 W 25 32 996.9 - 0.0 - Partly cloudy 10 - - - -
22/04:05pm 10.1 W 23 33 996.4 - 0.0 - Partly cloudy 10 - - - -
22/04:00pm 10.5 W 25 33 996.0 - 0.0 - Partly cloudy 10 - - - -
22/03:47pm 10.7 W 17 28 995.9 - 0.0 - Partly cloudy 10 - - - -
22/03:30pm 11.0 W 19 26 995.6 - 0.0 - Partly cloudy 10 - - - -
22/03:07pm 11.0 W 22 32 994.9 - 0.0 - - 10 - - - -
22/03:00pm 11.0 W 19 28 994.7 - 0.0 - - 10 - - - -
22/02:30pm 11.3 W 29 38 994.1 - 0.0 - Partly cloudy 10 - - - -
22/02:27pm 11.5 W 30 41 994.2 - 0.0 - Partly cloudy 10 - - - -
22/02:13pm 11.4 W 34 48 993.4 - 0.0 - Partly cloudy 10 - - - -
22/02:08pm 12.6 W 28 45 993.2 - 0.0 - Partly cloudy 10 - - - -
22/02:07pm 12.7 W 26 43 993.2 - 0.0 - Partly cloudy 10 - - - -
22/02:00pm 12.9 WNW 24 33 993.2 - 0.0 - Partly cloudy 10 - - - -
22/01:34pm 13.0 W 26 36 992.9 - 0.0 - - 10 - - - -
22/01:30pm 12.8 WNW 27 36 992.7 - 0.0 - - 10 - - - -
22/01:14pm 12.8 W 27 41 992.9 - 0.0 - Partly cloudy 10 - - - -
22/01:12pm 12.3 W 25 41 992.8 - 0.0 - Partly cloudy 10 - - - -
22/01:09pm 12.4 W 22 32 992.9 - 0.0 - Partly cloudy 10 - - - -
22/01:00pm 12.4 W 23 31 992.9 - 0.0 - Partly cloudy 10 - - - -
22/12:30pm 13.0 WNW 25 34 992.9 - 0.0 - Partly cloudy 10 - - - -
22/12:25pm 13.0 WNW 22 33 992.9 - 0.0 - Partly cloudy 10 - - - -
22/12:00pm 12.8 WNW 23 29 993.0 - 0.0 - Mostly clear 10 - - - -
22/11:30am 13.0 WNW 22 29 992.9 - 0.0 - - 10 - - - -
22/11:08am 13.0 WNW 21 31 993.1 - 0.0 - Partly cloudy 10 - - - -
22/11:00am 13.0 WNW 21 25 993.2 - 0.0 - Partly cloudy 10 - - - -
22/10:30am 12.4 WNW 19 25 993.1 - 0.0 - - 10 - - - -
22/10:00am 12.1 W 22 29 992.8 - 0.0 - - 10 - - - -
22/09:30am 12.0 WNW 19 25 992.2 - 0.0 - Partly cloudy 10 - - - -
22/09:00am 11.3 W 17 27 991.7 - 1.6 - Mostly clear 10 - - - -
22/08:59am 11.3 W 17 27 991.7 - 1.6 - - 10 - - - -
22/08:30am 11.0 W 22 29 990.9 - 1.6 - Partly cloudy 10 - - - -

Other Formats:

Comma delimited format used in spreadsheet applications
http://www.bom.gov.au/fwo/IDT60701/IDT60701.95960.axf

JavaScript Object Notation format (JSON) in row-major order
http://www.bom.gov.au/fwo/IDT60701/IDT60701.95960.json